Time;durP1;ratioP1;P1;durP2;ratioP2;P2;SDS_P1;SDS_P2;PMS_P1;PMS_P2;Temp;Humidity;BMP_temperature;BMP_pressure;BME280_temperature;BME280_humidity;BME280_pressure;Samples;Min_cycle;Max_cycle;Signal;HPM_P1;HPM_P2
2023/01/23 00:01:41;;;;;;;26.52;10.23;;;;;;;-144.47;100.00;53110.31;5006967;28;20093;-69
2023/01/23 00:04:09;;;;;;;22.27;10.55;;;;;;;-144.47;100.00;53154.03;5003509;28;20034;-68
2023/01/23 00:06:34;;;;;;;23.33;10.73;;;;;;;-144.47;100.00;53122.25;4994825;28;20064;-70
2023/01/23 00:09:00;;;;;;;27.70;12.10;;;;;;;-144.47;100.00;53126.22;5015060;28;20065;-71
2023/01/23 00:11:29;;;;;;;26.38;10.55;;;;;;;-144.47;100.00;53144.09;5012747;28;20029;-70
2023/01/23 00:13:55;;;;;;;23.80;11.07;;;;;;;-144.47;100.00;53130.19;5007145;28;20105;-69
2023/01/23 00:16:23;;;;;;;27.15;13.20;;;;;;;-144.47;100.00;53134.16;5007883;28;20041;-68
2023/01/23 00:18:50;;;;;;;25.25;10.93;;;;;;;-144.47;100.00;53124.22;5004319;28;20118;-68
2023/01/23 00:21:18;;;;;;;23.63;10.50;;;;;;;-144.47;100.00;53134.16;5006046;28;20049;-69
2023/01/23 00:23:48;;;;;;;23.27;10.60;;;;;;;-144.47;100.00;53134.16;5008179;28;20017;-71
2023/01/23 00:26:16;;;;;;;26.83;13.30;;;;;;;-144.47;100.00;53114.31;5004717;28;20109;-68
2023/01/23 00:28:43;;;;;;;28.17;11.80;;;;;;;-144.47;100.00;53118.28;5007193;28;20045;-72
2023/01/23 00:31:14;;;;;;;28.08;10.82;;;;;;;-144.47;100.00;53126.22;5004776;28;20039;-66
2023/01/23 00:33:40;;;;;;;27.67;12.63;;;;;;;-144.47;100.00;53132.19;5007675;28;20032;-68
2023/01/23 00:36:06;;;;;;;27.45;11.63;;;;;;;-144.47;100.00;53128.22;5004527;28;20030;-70
2023/01/23 00:38:32;;;;;;;28.52;12.25;;;;;;;-144.47;100.00;53090.47;5006423;28;20411;-69
2023/01/23 00:40:57;;;;;;;29.00;12.65;;;;;;;-144.47;100.00;53126.22;5005159;28;20026;-69
2023/01/23 00:43:23;;;;;;;21.98;10.18;;;;;;;-144.47;100.00;53108.34;5007118;28;20029;-68
2023/01/23 00:45:49;;;;;;;30.00;11.88;;;;;;;-144.47;100.00;53126.22;5005876;28;20065;-70
2023/01/23 00:48:15;;;;;;;27.23;11.52;;;;;;;-144.47;100.00;53120.25;5007500;28;20050;-70
2023/01/23 00:50:41;;;;;;;25.70;11.55;;;;;;;-144.47;100.00;53126.22;5005228;28;20574;-71
2023/01/23 00:53:06;;;;;;;24.50;9.70;;;;;;;-144.47;100.00;53116.28;5006841;28;20033;-72
2023/01/23 00:55:32;;;;;;;27.33;12.20;;;;;;;-144.47;100.00;53132.19;5004818;28;20030;-71
2023/01/23 00:57:58;;;;;;;28.00;11.18;;;;;;;-144.47;100.00;53104.38;5007407;28;20087;-72
2023/01/23 01:00:24;;;;;;;27.17;12.35;;;;;;;-144.47;100.00;53130.19;5006669;28;20431;-71
2023/01/23 01:02:49;;;;;;;24.27;10.70;;;;;;;-144.47;100.00;53104.38;5017311;28;20683;-69
2023/01/23 01:05:17;;;;;;;26.67;12.05;;;;;;;-144.47;100.00;53098.41;5003085;28;20034;-71
2023/01/23 01:07:43;;;;;;;26.35;11.35;;;;;;;-144.47;100.00;53138.13;5003765;28;20017;-70
2023/01/23 01:10:10;;;;;;;26.52;12.00;;;;;;;-144.47;100.00;53140.13;5012970;28;20038;-67
2023/01/23 01:12:36;;;;;;;30.75;12.48;;;;;;;-144.47;100.00;53110.31;5000246;28;20034;-71
2023/01/23 01:15:02;;;;;;;31.38;13.13;;;;;;;-144.47;100.00;53132.19;5005571;28;20546;-72
2023/01/23 01:17:28;;;;;;;26.15;11.45;;;;;;;-144.47;100.00;53122.25;4990029;28;20105;-72
2023/01/23 01:19:54;;;;;;;25.73;11.48;;;;;;;-144.47;100.00;53118.28;5001502;28;20109;-71
2023/01/23 01:22:19;;;;;;;28.75;12.02;;;;;;;-144.47;100.00;53124.22;4998481;28;20022;-71
2023/01/23 01:24:45;;;;;;;29.35;11.73;;;;;;;-144.47;100.00;53120.25;4995606;28;20044;-72
2023/01/23 01:27:10;;;;;;;21.83;10.85;;;;;;;-144.47;100.00;53138.13;5006710;28;20565;-71
2023/01/23 01:29:36;;;;;;;30.17;12.70;;;;;;;-144.47;100.00;53138.13;5007446;28;20025;-72
2023/01/23 01:32:02;;;;;;;27.67;11.93;;;;;;;-144.47;100.00;53146.09;5008101;28;20026;-73
2023/01/23 01:34:27;;;;;;;32.42;13.77;;;;;;;-144.47;100.00;53106.34;5011404;28;20049;-72
2023/01/23 01:36:53;;;;;;;27.40;11.40;;;;;;;-144.47;100.00;53136.16;5012931;28;20112;-70
2023/01/23 01:39:18;;;;;;;33.72;13.48;;;;;;;-144.47;100.00;53126.22;4999216;28;20377;-67
2023/01/23 01:41:44;;;;;;;27.17;11.75;;;;;;;-144.47;100.00;53148.06;5003127;28;20026;-70
2023/01/23 01:44:22;;;;;;;32.80;12.82;;;;;;;-144.47;100.00;53132.19;5006237;28;20026;-72
2023/01/23 01:46:48;;;;;;;33.55;12.98;;;;;;;-144.47;100.00;53128.22;5011226;28;20349;-71
2023/01/23 01:49:29;;;;;;;33.20;13.82;;;;;;;-144.47;100.00;53098.41;5009107;28;20384;-72
2023/01/23 01:52:08;;;;;;;32.35;11.65;;;;;;;-144.47;100.00;53098.41;5011703;28;20061;-71
2023/01/23 01:55:06;;;;;;;31.00;13.48;;;;;;;-144.47;100.00;53116.28;5011057;28;20070;-68
2023/01/23 01:57:37;;;;;;;36.25;13.93;;;;;;;-144.47;100.00;53114.31;5007037;28;20148;-70
2023/01/23 02:00:11;;;;;;;27.45;11.40;;;;;;;-144.47;100.00;53130.19;5010925;28;20063;-71
2023/01/23 02:02:50;;;;;;;36.28;14.07;;;;;;;-144.47;100.00;53114.31;5001279;28;20025;-69
2023/01/23 02:05:20;;;;;;;33.08;12.50;;;;;;;-144.47;100.00;53080.53;5005430;28;20173;-69
2023/01/23 02:08:04;;;;;;;31.83;12.20;;;;;;;-144.47;100.00;53140.13;5006716;28;20029;-71
2023/01/23 02:10:31;;;;;;;35.25;13.25;;;;;;;-144.47;100.00;53150.06;4999545;28;20392;-72
2023/01/23 02:13:22;;;;;;;33.58;14.02;;;;;;;-144.47;100.00;53120.25;4999763;28;20492;-70
2023/01/23 02:15:48;;;;;;;30.38;12.35;;;;;;;-144.47;100.00;53130.19;4996686;28;20053;-67
2023/01/23 02:18:14;;;;;;;38.40;13.98;;;;;;;-144.47;100.00;53122.25;5005100;28;20052;-70
2023/01/23 02:20:40;;;;;;;33.13;12.50;;;;;;;-144.47;100.00;53114.31;5007149;28;20040;-70
2023/01/23 02:23:41;;;;;;;40.88;13.65;;;;;;;-144.47;100.00;53128.22;4998602;28;20105;-70
2023/01/23 02:26:12;;;;;;;34.25;14.38;;;;;;;-144.47;100.00;53146.09;5010789;28;20526;-67
2023/01/23 02:28:46;;;;;;;38.20;14.02;;;;;;;-144.47;100.00;53122.25;4990586;28;20061;-70
2023/01/23 02:31:13;;;;;;;40.55;16.25;;;;;;;-144.47;100.00;53108.34;4995135;28;20499;-71
2023/01/23 02:33:39;;;;;;;38.65;14.55;;;;;;;-144.47;100.00;53122.25;5002057;28;20508;-72
2023/01/23 02:36:07;;;;;;;33.15;12.23;;;;;;;-144.47;100.00;53138.13;4996156;28;20048;-70
2023/01/23 02:38:45;;;;;;;41.08;14.10;;;;;;;-144.47;100.00;53108.34;5001582;28;20018;-70
2023/01/23 02:41:13;;;;;;;43.75;15.15;;;;;;;-144.47;100.00;53126.22;5010477;28;20109;-71
2023/01/23 02:43:39;;;;;;;41.57;15.67;;;;;;;-144.47;100.00;53128.22;5011963;28;20026;-72
2023/01/23 02:46:07;;;;;;;45.25;14.15;;;;;;;-144.47;100.00;53116.28;5005751;28;20758;-69
2023/01/23 02:48:33;;;;;;;34.50;14.18;;;;;;;-144.47;100.00;53116.28;5003894;28;20033;-71
2023/01/23 02:50:58;;;;;;;43.45;15.10;;;;;;;-144.47;100.00;53130.19;5011765;28;20034;-70
2023/01/23 02:53:24;;;;;;;42.22;14.35;;;;;;;-144.47;100.00;53161.97;5013729;28;20212;-69
2023/01/23 02:55:50;;;;;;;38.40;13.70;;;;;;;-144.47;100.00;53160.00;5012906;28;20046;-68
2023/01/23 03:01:01;;;;;;;38.53;13.93;;;;;;;-144.47;100.00;53158.00;5001011;28;20036;-70
2023/01/23 03:03:27;;;;;;;43.80;14.75;;;;;;;-144.47;100.00;53092.44;5011024;28;20014;-71
2023/01/23 03:05:54;;;;;;;42.55;15.65;;;;;;;-144.47;100.00;53142.09;5007215;28;20037;-69
2023/01/23 03:08:20;;;;;;;45.28;15.55;;;;;;;-144.47;100.00;53116.28;5014709;28;20032;-70
2023/01/23 03:10:45;;;;;;;42.20;14.40;;;;;;;-144.47;100.00;53130.19;5004987;28;20046;-71
2023/01/23 03:13:11;;;;;;;45.53;14.70;;;;;;;-144.47;100.00;53142.09;5011034;28;20025;-72
2023/01/23 03:15:38;;;;;;;46.50;14.40;;;;;;;-144.47;100.00;53163.97;5004405;28;20030;-71
2023/01/23 03:18:04;;;;;;;40.38;15.63;;;;;;;-144.47;100.00;53158.00;5011491;28;20022;-68
2023/01/23 03:20:37;;;;;;;43.10;14.25;;;;;;;-144.47;100.00;53106.34;5005900;28;20034;-69
2023/01/23 03:23:02;;;;;;;42.00;14.65;;;;;;;-144.47;100.00;53124.22;5004786;28;20061;-71
2023/01/23 03:25:28;;;;;;;42.15;14.02;;;;;;;-144.47;100.00;53146.09;5003301;28;20033;-71
2023/01/23 03:27:53;;;;;;;37.40;13.35;;;;;;;-144.47;100.00;53154.03;5001786;28;20025;-70
2023/01/23 03:30:20;;;;;;;44.15;13.68;;;;;;;-144.47;100.00;53154.03;4998484;28;20607;-70
2023/01/23 03:32:46;;;;;;;48.00;14.98;;;;;;;-144.47;100.00;53130.19;5001207;28;20025;-72
2023/01/23 03:35:13;;;;;;;48.67;15.50;;;;;;;-144.47;100.00;53146.09;5004804;28;20110;-70
2023/01/23 03:37:39;;;;;;;41.50;14.80;;;;;;;-144.47;100.00;53114.31;5001675;28;20288;-70
2023/01/23 03:42:49;;;;;;;38.70;13.82;;;;;;;-144.47;100.00;53118.28;4997070;28;20131;-71
2023/01/23 03:45:15;;;;;;;38.80;14.10;;;;;;;-144.47;100.00;53120.25;5000863;28;20448;-69
2023/01/23 03:47:41;;;;;;;48.17;14.93;;;;;;;-144.47;100.00;53146.09;5000698;28;20030;-71
2023/01/23 03:50:07;;;;;;;49.13;14.27;;;;;;;-144.47;100.00;53122.25;5000930;28;20033;-72
2023/01/23 03:52:32;;;;;;;38.15;15.10;;;;;;;-144.47;100.00;53124.22;4998848;28;20030;-72
2023/01/23 03:54:58;;;;;;;42.20;14.20;;;;;;;-144.47;100.00;53150.06;5000770;28;20060;-71
2023/01/23 03:57:23;;;;;;;44.08;14.05;;;;;;;-144.47;100.00;53142.09;4999145;28;20162;-69
2023/01/23 03:59:49;;;;;;;46.08;14.55;;;;;;;-144.47;100.00;53130.19;5000892;28;20026;-70
2023/01/23 04:02:15;;;;;;;43.15;14.88;;;;;;;-144.47;100.00;53122.25;5005170;28;20547;-70
2023/01/23 04:04:40;;;;;;;54.53;17.48;;;;;;;-144.47;100.00;53122.25;5006414;28;20100;-70
2023/01/23 04:07:06;;;;;;;43.13;14.05;;;;;;;-144.47;100.00;53138.13;4998479;28;20045;-68
2023/01/23 04:09:31;;;;;;;53.75;15.55;;;;;;;-144.47;100.00;53173.88;5010553;28;20026;-69
2023/01/23 04:11:58;;;;;;;38.83;14.25;;;;;;;-144.47;100.00;53110.31;5003164;28;20022;-71
2023/01/23 04:14:25;;;;;;;43.97;17.02;;;;;;;-144.47;100.00;53146.09;4998732;28;20405;-72
2023/01/23 04:16:52;;;;;;;43.17;13.55;;;;;;;-144.47;100.00;53150.06;4995312;28;20029;-69
2023/01/23 04:19:18;;;;;;;41.10;14.40;;;;;;;-144.47;100.00;53138.13;4990120;28;20026;-70
2023/01/23 04:21:45;;;;;;;45.55;14.75;;;;;;;-144.47;100.00;53104.38;5003642;28;20113;-72
2023/01/23 04:24:10;;;;;;;43.75;14.63;;;;;;;-144.47;100.00;53158.00;5008818;28;20028;-70
2023/01/23 04:26:36;;;;;;;43.47;14.93;;;;;;;-144.47;100.00;53120.25;5007535;28;20034;-69
2023/01/23 04:29:03;;;;;;;42.05;14.77;;;;;;;-144.47;100.00;53120.25;5008892;28;20033;-70
2023/01/23 04:31:28;;;;;;;48.42;15.93;;;;;;;-144.47;100.00;53118.28;5007457;28;20041;-71
2023/01/23 04:33:53;;;;;;;43.28;13.73;;;;;;;-144.47;100.00;53140.13;5008509;28;20045;-70
2023/01/23 04:36:19;;;;;;;43.70;15.48;;;;;;;-144.47;100.00;53134.16;5007458;28;20085;-70
2023/01/23 04:38:44;;;;;;;47.70;13.77;;;;;;;-144.47;100.00;53146.09;5008975;28;20018;-70
2023/01/23 04:41:18;;;;;;;56.15;14.65;;;;;;;-144.47;100.00;53130.19;5008149;28;20021;-70
2023/01/23 04:43:43;;;;;;;52.85;15.40;;;;;;;-144.47;100.00;53130.19;5008592;28;20081;-70
2023/01/23 04:46:08;;;;;;;46.90;14.93;;;;;;;-144.47;100.00;53140.13;5007913;28;20523;-70
2023/01/23 04:48:34;;;;;;;46.55;14.70;;;;;;;-144.47;100.00;53116.28;5007965;28;20030;-72
2023/01/23 04:50:59;;;;;;;45.67;15.15;;;;;;;-144.47;100.00;53126.22;5008206;28;20074;-71
2023/01/23 04:53:24;;;;;;;58.97;14.77;;;;;;;-144.47;100.00;53094.44;5008555;28;20595;-69
2023/01/23 04:55:50;;;;;;;51.13;14.55;;;;;;;-144.47;100.00;53122.25;5008114;28;20081;-71
2023/01/23 04:58:16;;;;;;;47.70;14.88;;;;;;;-144.47;100.00;53146.09;5008612;28;20022;-68
2023/01/23 05:00:42;;;;;;;43.85;15.02;;;;;;;-144.47;100.00;53138.13;5007567;28;20029;-68
2023/01/23 05:03:07;;;;;;;39.80;13.90;;;;;;;-144.47;100.00;53148.06;5008705;28;20037;-70
2023/01/23 05:05:32;;;;;;;39.80;13.70;;;;;;;-144.47;100.00;53148.06;5007197;28;20101;-69
2023/01/23 05:07:58;;;;;;;60.78;16.13;;;;;;;-144.47;100.00;53138.13;5006380;28;20021;-70
2023/01/23 05:10:23;;;;;;;47.88;14.93;;;;;;;-144.47;100.00;53138.13;5003498;28;20022;-69
2023/01/23 05:12:48;;;;;;;44.58;15.00;;;;;;;-144.47;100.00;53150.06;5003699;28;20535;-70
2023/01/23 05:15:14;;;;;;;56.92;15.57;;;;;;;-144.47;100.00;53146.09;5008695;28;20049;-72
2023/01/23 05:17:39;;;;;;;53.08;15.20;;;;;;;-144.47;100.00;53120.25;5010368;28;20022;-71
2023/01/23 05:20:06;;;;;;;44.70;15.80;;;;;;;-144.47;100.00;53148.06;5010255;28;20029;-67
2023/01/23 05:22:32;;;;;;;47.88;16.33;;;;;;;-144.47;100.00;53138.13;5002108;28;20161;-68
2023/01/23 05:24:57;;;;;;;48.47;16.17;;;;;;;-144.47;100.00;53128.22;5009842;28;20507;-69
2023/01/23 05:27:23;;;;;;;49.70;15.82;;;;;;;-144.47;100.00;53124.22;5001997;28;20034;-68
2023/01/23 05:29:48;;;;;;;48.63;15.73;;;;;;;-144.47;100.00;53148.06;4999238;28;20065;-70
2023/01/23 05:32:14;;;;;;;45.85;14.27;;;;;;;-144.47;100.00;53118.28;5005407;28;20080;-71
2023/01/23 05:34:39;;;;;;;43.03;14.68;;;;;;;-144.47;100.00;53108.34;5012186;28;20033;-70
2023/01/23 05:37:04;;;;;;;42.47;15.00;;;;;;;-144.47;100.00;53136.16;5010472;28;20373;-68
2023/01/23 05:39:33;;;;;;;38.33;13.30;;;;;;;-144.47;100.00;53140.13;5017623;28;20459;-67
2023/01/23 05:41:58;;;;;;;48.47;14.50;;;;;;;-144.47;100.00;53142.09;5000481;28;20030;-67
2023/01/23 05:44:24;;;;;;;50.00;16.83;;;;;;;-144.47;100.00;53152.03;5010066;28;20034;-66
2023/01/23 05:46:49;;;;;;;45.72;13.45;;;;;;;-144.47;100.00;53128.22;5010746;28;20486;-69
2023/01/23 05:49:15;;;;;;;46.47;15.43;;;;;;;-144.47;100.00;53154.03;5021857;28;20081;-69
2023/01/23 05:51:41;;;;;;;52.17;15.68;;;;;;;-144.47;100.00;53140.13;5013920;28;20040;-67
2023/01/23 05:54:08;;;;;;;54.55;17.55;;;;;;;-144.47;100.00;53132.19;5030357;22;20046;-69
2023/01/23 05:56:34;;;;;;;47.58;15.05;;;;;;;-144.47;100.00;53106.34;5032199;28;20026;-67
2023/01/23 05:58:59;;;;;;;43.75;14.32;;;;;;;-144.47;100.00;53106.34;5020247;28;20414;-65
2023/01/23 06:01:25;;;;;;;57.53;18.77;;;;;;;-144.47;100.00;53108.34;5029799;28;20091;-68
2023/01/23 06:03:50;;;;;;;42.30;16.40;;;;;;;-144.47;100.00;53120.25;5008642;28;20029;-66
2023/01/23 06:06:15;;;;;;;55.30;16.38;;;;;;;-144.47;100.00;53118.28;5004253;28;20033;-69
2023/01/23 06:08:41;;;;;;;46.92;15.38;;;;;;;-144.47;100.00;53114.31;5009248;28;20030;-65
2023/01/23 06:11:06;;;;;;;66.15;18.17;;;;;;;-144.47;100.00;53130.19;4993103;28;20026;-66
2023/01/23 06:13:31;;;;;;;49.90;15.70;;;;;;;-144.47;100.00;53118.28;4993500;28;20041;-67
2023/01/23 06:15:57;;;;;;;45.38;15.80;;;;;;;-144.47;100.00;53124.22;5012320;28;20534;-66
2023/01/23 06:18:22;;;;;;;46.55;14.90;;;;;;;-144.47;100.00;53148.06;5009724;28;20022;-68
2023/01/23 06:20:48;;;;;;;51.80;16.92;;;;;;;-144.47;100.00;53134.16;4991867;28;20034;-64
2023/01/23 06:23:13;;;;;;;48.17;15.73;;;;;;;-144.47;100.00;53116.28;5000480;28;20401;-66
2023/01/23 06:25:39;;;;;;;50.00;15.70;;;;;;;-144.47;100.00;53106.34;5008502;28;20121;-67
2023/01/23 06:28:05;;;;;;;54.47;15.85;;;;;;;-144.47;100.00;53146.09;4995717;28;20101;-68
2023/01/23 06:30:30;;;;;;;54.92;16.02;;;;;;;-144.47;100.00;53138.13;5003985;28;20029;-66
2023/01/23 06:32:56;;;;;;;56.53;16.38;;;;;;;-144.47;100.00;53116.28;4998258;28;20087;-66
2023/01/23 06:35:21;;;;;;;59.85;18.13;;;;;;;-144.47;100.00;53156.00;5011304;28;20033;-68
2023/01/23 06:37:47;;;;;;;56.67;17.67;;;;;;;-144.47;100.00;53152.03;4990630;28;20139;-65
2023/01/23 06:40:13;;;;;;;59.88;19.02;;;;;;;-144.47;100.00;53138.13;4991710;28;20026;-67
2023/01/23 06:42:41;;;;;;;43.08;14.88;;;;;;;-144.47;100.00;53112.31;4991923;28;20025;-66
2023/01/23 06:45:09;;;;;;;56.10;18.85;;;;;;;-144.47;100.00;53088.47;5001380;28;20025;-67
2023/01/23 06:47:35;;;;;;;57.53;20.08;;;;;;;-144.47;100.00;53138.13;4998250;28;20118;-69
2023/01/23 06:50:01;;;;;;;64.93;19.77;;;;;;;-144.47;100.00;53114.31;4991565;28;20080;-67
2023/01/23 06:52:27;;;;;;;54.22;16.70;;;;;;;-144.47;100.00;53118.28;4991463;28;20037;-67
2023/01/23 06:54:53;;;;;;;60.03;19.98;;;;;;;-144.47;100.00;53140.13;4994896;28;20026;-67
2023/01/23 06:57:18;;;;;;;51.83;15.57;;;;;;;-144.47;100.00;53112.31;4993352;28;20025;-68
2023/01/23 06:59:44;;;;;;;52.20;16.20;;;;;;;-144.47;100.00;53116.28;5004561;28;20103;-66
2023/01/23 07:02:10;;;;;;;50.03;16.38;;;;;;;-144.47;100.00;53104.38;4988439;28;20110;-66
2023/01/23 07:04:36;;;;;;;51.80;17.45;;;;;;;-144.47;100.00;53122.25;4999090;28;20429;-66
2023/01/23 07:07:02;;;;;;;48.80;16.35;;;;;;;-144.47;100.00;53126.22;5002376;28;20090;-67
2023/01/23 07:09:27;;;;;;;53.63;15.50;;;;;;;-144.47;100.00;53102.38;5007168;28;20029;-66
2023/01/23 07:11:53;;;;;;;62.30;19.80;;;;;;;-144.47;100.00;53132.19;4997158;28;20117;-67
2023/01/23 07:14:18;;;;;;;55.20;16.33;;;;;;;-144.47;100.00;53130.19;4997455;28;20022;-67
2023/01/23 07:16:44;;;;;;;50.55;16.80;;;;;;;-144.47;100.00;53110.31;5003845;28;20488;-68
2023/01/23 07:19:09;;;;;;;49.35;16.08;;;;;;;-144.47;100.00;53120.25;5003211;28;20026;-68
2023/01/23 07:21:35;;;;;;;48.72;15.95;;;;;;;-144.47;100.00;53130.19;4998594;28;20049;-68
2023/01/23 07:24:00;;;;;;;50.13;17.40;;;;;;;-144.47;100.00;53112.31;4996927;28;20102;-68
2023/01/23 07:26:26;;;;;;;51.85;16.35;;;;;;;-144.47;100.00;53142.09;4997794;28;20511;-65
2023/01/23 07:28:52;;;;;;;48.40;17.05;;;;;;;-144.47;100.00;53096.41;4996539;28;20034;-67
2023/01/23 07:31:18;;;;;;;46.95;15.65;;;;;;;-144.47;100.00;53167.94;5001600;28;20025;-70
2023/01/23 07:33:43;;;;;;;46.10;15.80;;;;;;;-144.47;100.00;53110.31;5002824;28;20066;-68
2023/01/23 07:36:09;;;;;;;50.40;16.20;;;;;;;-144.47;100.00;53132.19;4998398;28;20028;-66
2023/01/23 07:38:35;;;;;;;46.50;16.00;;;;;;;-144.47;100.00;53122.25;4997142;28;20082;-67
2023/01/23 07:41:00;;;;;;;46.83;15.10;;;;;;;-144.47;100.00;53116.28;5003172;28;20054;-68
2023/01/23 07:43:26;;;;;;;42.85;15.15;;;;;;;-144.47;100.00;53148.06;5003787;28;20065;-64
2023/01/23 07:45:52;;;;;;;45.50;16.75;;;;;;;-144.47;100.00;53114.31;4998542;28;20471;-69
2023/01/23 07:48:17;;;;;;;47.92;16.67;;;;;;;-144.47;100.00;53102.38;4999856;28;20353;-68
2023/01/23 07:50:43;;;;;;;54.20;16.05;;;;;;;-144.47;100.00;53114.31;5002938;28;20033;-68
2023/01/23 07:53:08;;;;;;;46.17;16.60;;;;;;;-144.47;100.00;53150.06;4997576;28;20034;-65
2023/01/23 07:55:36;;;;;;;47.28;14.40;;;;;;;-144.47;100.00;53082.53;5004307;28;20043;-67
2023/01/23 07:58:02;;;;;;;39.58;15.82;;;;;;;-144.47;100.00;53130.19;4998589;28;20060;-68
2023/01/23 08:00:28;;;;;;;32.78;14.15;;;;;;;-144.47;100.00;53140.13;4997397;28;20026;-68
2023/01/23 08:02:54;;;;;;;41.92;16.08;;;;;;;-144.47;100.00;53110.31;5003347;28;20025;-68
2023/01/23 08:05:19;;;;;;;38.92;13.65;;;;;;;-144.47;100.00;53126.22;4991282;28;20022;-67
2023/01/23 08:07:45;;;;;;;40.63;14.57;;;;;;;-144.47;100.00;53120.25;4994970;28;20030;-67
2023/01/23 08:10:10;;;;;;;39.45;15.15;;;;;;;-144.47;100.00;53116.28;5002893;28;20034;-68
2023/01/23 08:12:36;;;;;;;41.15;15.07;;;;;;;-144.47;100.00;53138.13;5009830;28;20466;-67
2023/01/23 08:15:01;;;;;;;50.03;14.82;;;;;;;-144.47;100.00;53130.19;5009431;28;20026;-68
2023/01/23 08:17:27;;;;;;;51.75;15.10;;;;;;;-144.47;100.00;53118.28;5009315;28;20018;-69
2023/01/23 08:19:52;;;;;;;34.60;13.93;;;;;;;-144.47;100.00;53120.25;5009511;28;20034;-68
2023/01/23 08:22:18;;;;;;;47.00;14.95;;;;;;;-144.47;100.00;53094.44;5003218;28;20501;-65
2023/01/23 08:24:43;;;;;;;30.77;13.75;;;;;;;-144.47;100.00;53092.44;5004756;28;20079;-69
2023/01/23 08:27:09;;;;;;;38.50;14.85;;;;;;;-144.47;100.00;53108.34;5010723;28;20030;-67
2023/01/23 08:29:34;;;;;;;38.60;15.82;;;;;;;-144.47;100.00;53120.25;5011283;28;20044;-65
2023/01/23 08:31:59;;;;;;;46.35;15.57;;;;;;;-144.47;100.00;53110.31;5011312;28;20093;-68
2023/01/23 08:34:25;;;;;;;42.78;15.38;;;;;;;-144.47;100.00;53124.22;5011244;28;20026;-66
2023/01/23 08:36:50;;;;;;;47.35;14.88;;;;;;;-144.47;100.00;53110.31;5010048;28;20060;-68
2023/01/23 08:39:17;;;;;;;42.72;15.10;;;;;;;-144.47;100.00;53112.31;5009892;28;20057;-66
2023/01/23 08:41:42;;;;;;;38.58;14.40;;;;;;;-144.47;100.00;53110.31;5000924;28;20480;-68
2023/01/23 08:44:07;;;;;;;38.20;15.23;;;;;;;-144.47;100.00;53118.28;5007174;28;20022;-68
2023/01/23 08:46:33;;;;;;;36.17;14.98;;;;;;;-144.47;100.00;53116.28;5014489;28;20039;-68
2023/01/23 08:48:58;;;;;;;37.60;14.48;;;;;;;-144.47;100.00;53114.31;5007116;28;20627;-67
2023/01/23 08:51:26;;;;;;;39.40;13.85;;;;;;;-144.47;100.00;53128.22;5003188;28;20030;-66
2023/01/23 08:53:52;;;;;;;37.92;15.48;;;;;;;-144.47;100.00;53104.38;4999830;28;20030;-67
2023/01/23 08:56:19;;;;;;;38.15;15.07;;;;;;;-144.47;100.00;53102.38;5006171;28;20022;-66
2023/01/23 08:58:46;;;;;;;40.58;14.43;;;;;;;-144.47;100.00;53104.38;5008185;28;20057;-66
2023/01/23 09:01:17;;;;;;;35.72;14.23;;;;;;;-144.47;100.00;53098.41;5003209;28;20061;-69
2023/01/23 09:03:43;;;;;;;45.70;16.15;;;;;;;-144.47;100.00;53110.31;4996026;28;20064;-69
2023/01/23 09:06:11;;;;;;;40.67;13.07;;;;;;;-144.47;100.00;53126.22;5004670;28;20391;-69
2023/01/23 09:08:36;;;;;;;47.95;15.18;;;;;;;-144.47;100.00;53112.31;5000989;28;20029;-68
2023/01/23 09:11:04;;;;;;;64.10;24.67;;;;;;;-144.47;100.00;53072.59;5003368;28;20381;-67
2023/01/23 09:13:29;;;;;;;47.45;16.42;;;;;;;-144.47;100.00;53106.34;4997520;28;20021;-68
2023/01/23 09:15:55;;;;;;;47.60;19.35;;;;;;;-144.47;100.00;53128.22;5004984;28;20080;-66
2023/01/23 09:18:26;;;;;;;39.97;16.83;;;;;;;-144.47;100.00;53104.38;5006672;28;20476;-68
2023/01/23 09:20:53;;;;;;;41.22;16.23;;;;;;;-144.47;100.00;53098.41;5004654;28;20030;-68
2023/01/23 09:23:18;;;;;;;46.00;16.02;;;;;;;-144.47;100.00;53136.16;5001330;28;20037;-67
2023/01/23 09:25:44;;;;;;;40.90;14.00;;;;;;;-144.47;100.00;53128.22;5013318;28;20529;-67
2023/01/23 09:28:09;;;;;;;45.10;13.95;;;;;;;-144.47;100.00;53098.41;5000622;28;20121;-67
2023/01/23 09:30:35;;;;;;;34.03;14.23;;;;;;;-144.47;100.00;53114.31;5004553;28;20507;-66
2023/01/23 09:33:01;;;;;;;44.45;15.65;;;;;;;-144.47;100.00;53088.47;5006927;28;20031;-68
2023/01/23 09:35:27;;;;;;;41.30;14.38;;;;;;;-144.47;100.00;53126.22;5000944;28;20117;-67
2023/01/23 09:38:03;;;;;;;40.25;14.73;;;;;;;-144.47;100.00;53120.25;5000303;28;20646;-68
2023/01/23 09:40:35;;;;;;;41.03;15.07;;;;;;;-144.47;100.00;53100.41;5008302;28;20032;-66
2023/01/23 09:43:17;;;;;;;35.90;14.65;;;;;;;-144.47;100.00;53098.41;4997740;28;20033;-66
2023/01/23 09:46:09;;;;;;;34.60;14.57;;;;;;;-144.47;100.00;53098.41;4982933;28;20420;-64
2023/01/23 09:49:07;;;;;;;50.72;17.00;;;;;;;-144.47;100.00;53140.13;5006465;28;20049;-67
2023/01/23 09:52:00;;;;;;;37.40;15.03;;;;;;;-144.47;100.00;53128.22;4974214;28;20080;-67
2023/01/23 09:54:31;;;;;;;33.08;14.43;;;;;;;-144.47;100.00;53114.31;5012671;28;20275;-66
2023/01/23 09:57:00;;;;;;;37.50;14.73;;;;;;;-144.47;100.00;53114.31;4998610;28;20039;-66
2023/01/23 09:59:35;;;;;;;40.70;17.00;;;;;;;-144.47;100.00;53126.22;5011528;28;20584;-66
2023/01/23 10:02:01;;;;;;;40.03;14.93;;;;;;;-144.47;100.00;53122.25;5005020;28;20158;-68
2023/01/23 10:04:27;;;;;;;36.53;14.02;;;;;;;-144.47;100.00;53072.59;4996096;28;20025;-65
2023/01/23 10:06:52;;;;;;;35.22;14.02;;;;;;;-144.47;100.00;53092.44;5005160;28;20022;-68
2023/01/23 10:09:30;;;;;;;40.88;13.93;;;;;;;-144.47;100.00;53114.31;5010154;28;20022;-67
2023/01/23 10:12:10;;;;;;;33.30;14.55;;;;;;;-144.47;100.00;53086.50;5006582;28;20034;-66
2023/01/23 10:14:38;;;;;;;43.20;14.88;;;;;;;-144.47;100.00;53088.47;5005380;28;20030;-67
2023/01/23 10:17:28;;;;;;;46.60;15.65;;;;;;;-144.47;100.00;53108.34;4991425;28;20352;-66
2023/01/23 10:20:11;;;;;;;45.38;18.27;;;;;;;-144.47;100.00;53098.41;5009275;28;20030;-66
2023/01/23 10:23:29;;;;;;;37.63;14.52;;;;;;;-144.47;100.00;53096.41;5011993;28;20125;-67
2023/01/23 10:25:55;;;;;;;43.15;15.40;;;;;;;-144.47;100.00;53060.66;4981649;28;20042;-67
2023/01/23 10:28:37;;;;;;;44.08;16.52;;;;;;;-144.47;100.00;53086.50;5005922;28;20022;-64
2023/01/23 10:31:09;;;;;;;47.10;18.60;;;;;;;-144.47;100.00;53090.47;5007668;28;20128;-65
2023/01/23 10:34:09;;;;;;;40.72;17.30;;;;;;;-144.47;100.00;53080.53;5003379;28;20031;-65
2023/01/23 10:36:42;;;;;;;37.33;13.45;;;;;;;-144.47;100.00;53082.53;4996426;28;20121;-65
2023/01/23 10:39:19;;;;;;;38.53;14.63;;;;;;;-144.47;99.91;53110.31;4998771;28;20369;-66
2023/01/23 10:41:45;;;;;;;41.60;16.00;;;;;;;-144.47;99.65;53110.31;5001393;28;20110;-68
2023/01/23 10:44:15;;;;;;;39.85;14.35;;;;;;;-144.47;99.97;53088.47;5004583;28;20045;-64
2023/01/23 10:46:48;;;;;;;43.42;18.05;;;;;;;-144.47;99.51;53122.25;5001771;28;20033;-65
2023/01/23 10:49:30;;;;;;;46.20;19.90;;;;;;;-144.47;99.45;53106.34;4993634;28;20046;-64
2023/01/23 10:51:55;;;;;;;50.08;17.15;;;;;;;-144.47;99.83;53090.47;4998640;28;20027;-63
2023/01/23 10:54:25;;;;;;;48.22;19.08;;;;;;;-144.47;99.75;53110.31;4996725;28;20495;-67
2023/01/23 10:57:22;;;;;;;47.65;18.60;;;;;;;-144.47;100.00;53090.47;4991986;28;20048;-65
2023/01/23 11:00:02;;;;;;;47.40;16.90;;;;;;;-144.47;100.00;53110.31;4996605;28;20087;-63
2023/01/23 11:02:36;;;;;;;42.13;18.15;;;;;;;-144.47;99.64;53104.38;4989807;28;20033;-67
2023/01/23 11:05:22;;;;;;;44.97;15.90;;;;;;;-144.47;100.00;53094.44;4993457;28;20026;-64